sensor_id;sensor_type;location;lat;lon;timestamp;temperature;humidity
1602;DHT22;794;48.592;9.634;2023-05-16T00:02:15;7.60;1.00
1602;DHT22;794;48.592;9.634;2023-05-16T00:04:42;7.70;1.00
1602;DHT22;794;48.592;9.634;2023-05-16T00:07:09;7.40;1.00
1602;DHT22;794;48.592;9.634;2023-05-16T00:09:35;7.60;1.00
1602;DHT22;794;48.592;9.634;2023-05-16T00:12:03;7.50;1.00
1602;DHT22;794;48.592;9.634;2023-05-16T00:14:30;7.40;1.00
1602;DHT22;794;48.592;9.634;2023-05-16T00:16:59;7.80;1.00
1602;DHT22;794;48.592;9.634;2023-05-16T00:19:27;7.40;1.00
1602;DHT22;794;48.592;9.634;2023-05-16T00:21:54;7.70;1.00
1602;DHT22;794;48.592;9.634;2023-05-16T00:24:21;7.40;1.00
1602;DHT22;794;48.592;9.634;2023-05-16T00:26:48;7.20;1.00
1602;DHT22;794;48.592;9.634;2023-05-16T00:29:15;7.20;1.00
1602;DHT22;794;48.592;9.634;2023-05-16T00:31:42;7.40;1.00
1602;DHT22;794;48.592;9.634;2023-05-16T00:34:09;7.50;1.00
1602;DHT22;794;48.592;9.634;2023-05-16T00:36:37;7.30;1.00
1602;DHT22;794;48.592;9.634;2023-05-16T00:39:04;7.40;1.00
1602;DHT22;794;48.592;9.634;2023-05-16T00:41:32;7.10;1.00
1602;DHT22;794;48.592;9.634;2023-05-16T00:43:59;7.00;1.00
1602;DHT22;794;48.592;9.634;2023-05-16T00:46:26;7.40;1.00
1602;DHT22;794;48.592;9.634;2023-05-16T00:48:53;7.50;1.00
1602;DHT22;794;48.592;9.634;2023-05-16T00:51:20;7.30;1.00
1602;DHT22;794;48.592;9.634;2023-05-16T00:53:48;7.00;1.00
1602;DHT22;794;48.592;9.634;2023-05-16T00:56:16;7.30;1.00
1602;DHT22;794;48.592;9.634;2023-05-16T00:58:43;7.20;1.00
1602;DHT22;794;48.592;9.634;2023-05-16T01:01:10;7.30;1.00
1602;DHT22;794;48.592;9.634;2023-05-16T01:03:38;7.40;1.00
1602;DHT22;794;48.592;9.634;2023-05-16T01:06:05;7.30;1.00
1602;DHT22;794;48.592;9.634;2023-05-16T01:08:32;7.50;1.00
1602;DHT22;794;48.592;9.634;2023-05-16T01:11:07;7.40;1.00
1602;DHT22;794;48.592;9.634;2023-05-16T01:13:42;7.30;1.00
1602;DHT22;794;48.592;9.634;2023-05-16T01:16:28;7.20;1.00
1602;DHT22;794;48.592;9.634;2023-05-16T01:19:03;7.10;1.00
1602;DHT22;794;48.592;9.634;2023-05-16T01:21:43;7.20;1.00
1602;DHT22;794;48.592;9.634;2023-05-16T01:24:26;7.00;1.00
1602;DHT22;794;48.592;9.634;2023-05-16T01:26:58;7.10;1.00
1602;DHT22;794;48.592;9.634;2023-05-16T01:29:25;7.30;1.00
1602;DHT22;794;48.592;9.634;2023-05-16T01:31:53;7.30;1.00
1602;DHT22;794;48.592;9.634;2023-05-16T01:34:19;7.10;1.00
1602;DHT22;794;48.592;9.634;2023-05-16T01:36:50;7.30;1.00
1602;DHT22;794;48.592;9.634;2023-05-16T01:39:42;7.00;1.00
1602;DHT22;794;48.592;9.634;2023-05-16T01:42:13;7.20;1.00
1602;DHT22;794;48.592;9.634;2023-05-16T01:44:43;7.00;1.00
1602;DHT22;794;48.592;9.634;2023-05-16T01:47:13;7.00;1.00
1602;DHT22;794;48.592;9.634;2023-05-16T01:49:44;6.90;1.00
1602;DHT22;794;48.592;9.634;2023-05-16T01:52:16;7.30;1.00
1602;DHT22;794;48.592;9.634;2023-05-16T01:54:47;7.00;1.00
1602;DHT22;794;48.592;9.634;2023-05-16T01:57:16;7.10;1.00
1602;DHT22;794;48.592;9.634;2023-05-16T01:59:44;6.90;1.00
1602;DHT22;794;48.592;9.634;2023-05-16T02:02:19;7.00;1.00
1602;DHT22;794;48.592;9.634;2023-05-16T02:04:46;7.10;1.00
1602;DHT22;794;48.592;9.634;2023-05-16T02:07:13;7.30;1.00
1602;DHT22;794;48.592;9.634;2023-05-16T02:09:40;7.30;1.00
1602;DHT22;794;48.592;9.634;2023-05-16T02:12:07;7.20;1.00
1602;DHT22;794;48.592;9.634;2023-05-16T02:14:36;7.10;1.00
1602;DHT22;794;48.592;9.634;2023-05-16T02:17:02;7.10;1.00
1602;DHT22;794;48.592;9.634;2023-05-16T02:19:30;7.10;1.00
1602;DHT22;794;48.592;9.634;2023-05-16T02:21:57;7.10;1.00
1602;DHT22;794;48.592;9.634;2023-05-16T02:24:24;7.10;1.00
1602;DHT22;794;48.592;9.634;2023-05-16T02:26:51;7.20;1.00
1602;DHT22;794;48.592;9.634;2023-05-16T02:29:18;7.20;1.00
1602;DHT22;794;48.592;9.634;2023-05-16T02:31:46;7.30;1.00
1602;DHT22;794;48.592;9.634;2023-05-16T02:34:13;7.30;1.00
1602;DHT22;794;48.592;9.634;2023-05-16T02:36:40;7.10;1.00
1602;DHT22;794;48.592;9.634;2023-05-16T02:39:07;7.30;1.00
1602;DHT22;794;48.592;9.634;2023-05-16T02:41:34;7.30;1.00
1602;DHT22;794;48.592;9.634;2023-05-16T02:44:03;7.00;1.00
1602;DHT22;794;48.592;9.634;2023-05-16T02:46:33;7.30;1.00
1602;DHT22;794;48.592;9.634;2023-05-16T02:49:01;7.20;1.00
1602;DHT22;794;48.592;9.634;2023-05-16T02:51:28;7.10;1.00
1602;DHT22;794;48.592;9.634;2023-05-16T02:53:55;7.20;1.00
1602;DHT22;794;48.592;9.634;2023-05-16T02:56:24;7.40;1.00
1602;DHT22;794;48.592;9.634;2023-05-16T02:58:53;7.20;1.00
1602;DHT22;794;48.592;9.634;2023-05-16T03:01:20;7.30;1.00
1602;DHT22;794;48.592;9.634;2023-05-16T03:03:47;7.70;1.00
1602;DHT22;794;48.592;9.634;2023-05-16T03:06:15;7.80;1.00
1602;DHT22;794;48.592;9.634;2023-05-16T03:08:42;7.50;1.00
1602;DHT22;794;48.592;9.634;2023-05-16T03:11:09;7.80;1.00
1602;DHT22;794;48.592;9.634;2023-05-16T03:13:36;8.00;1.00
1602;DHT22;794;48.592;9.634;2023-05-16T03:16:04;8.30;1.00
1602;DHT22;794;48.592;9.634;2023-05-16T03:18:31;8.20;1.00
1602;DHT22;794;48.592;9.634;2023-05-16T03:20:58;8.30;1.00
1602;DHT22;794;48.592;9.634;2023-05-16T03:23:27;8.40;1.00
1602;DHT22;794;48.592;9.634;2023-05-16T03:25:54;8.40;1.00
1602;DHT22;794;48.592;9.634;2023-05-16T03:28:21;8.50;1.00
1602;DHT22;794;48.592;9.634;2023-05-16T03:30:48;8.50;1.00
1602;DHT22;794;48.592;9.634;2023-05-16T03:33:15;8.70;1.00
1602;DHT22;794;48.592;9.634;2023-05-16T03:35:42;8.60;1.00
1602;DHT22;794;48.592;9.634;2023-05-16T03:38:09;8.60;1.00
1602;DHT22;794;48.592;9.634;2023-05-16T03:40:37;8.70;1.00
1602;DHT22;794;48.592;9.634;2023-05-16T03:43:04;8.90;1.00
1602;DHT22;794;48.592;9.634;2023-05-16T03:45:31;9.00;1.00
1602;DHT22;794;48.592;9.634;2023-05-16T03:47:58;8.90;1.00
1602;DHT22;794;48.592;9.634;2023-05-16T03:50:25;9.10;1.00
1602;DHT22;794;48.592;9.634;2023-05-16T03:52:53;9.40;1.00
1602;DHT22;794;48.592;9.634;2023-05-16T03:55:20;9.50;1.00
1602;DHT22;794;48.592;9.634;2023-05-16T03:57:48;9.20;1.00
1602;DHT22;794;48.592;9.634;2023-05-16T04:00:17;9.40;1.00
1602;DHT22;794;48.592;9.634;2023-05-16T04:02:44;9.50;1.00
1602;DHT22;794;48.592;9.634;2023-05-16T04:05:11;9.70;1.00
1602;DHT22;794;48.592;9.634;2023-05-16T04:07:38;9.90;1.00
1602;DHT22;794;48.592;9.634;2023-05-16T04:10:06;10.20;1.00
1602;DHT22;794;48.592;9.634;2023-05-16T04:12:33;10.30;1.00
1602;DHT22;794;48.592;9.634;2023-05-16T04:15:03;10.40;1.00
1602;DHT22;794;48.592;9.634;2023-05-16T04:17:30;10.20;1.00
1602;DHT22;794;48.592;9.634;2023-05-16T04:19:57;10.30;1.00
1602;DHT22;794;48.592;9.634;2023-05-16T04:22:24;10.80;1.00
1602;DHT22;794;48.592;9.634;2023-05-16T04:24:51;10.70;1.00
1602;DHT22;794;48.592;9.634;2023-05-16T04:27:18;10.80;1.00
1602;DHT22;794;48.592;9.634;2023-05-16T04:29:47;10.80;1.00
1602;DHT22;794;48.592;9.634;2023-05-16T04:32:15;10.90;1.00
1602;DHT22;794;48.592;9.634;2023-05-16T04:34:42;10.90;1.00
1602;DHT22;794;48.592;9.634;2023-05-16T04:37:11;11.00;1.00
1602;DHT22;794;48.592;9.634;2023-05-16T04:39:38;11.20;1.00
1602;DHT22;794;48.592;9.634;2023-05-16T04:42:05;11.30;1.00
1602;DHT22;794;48.592;9.634;2023-05-16T04:44:34;11.30;1.00
1602;DHT22;794;48.592;9.634;2023-05-16T04:47:01;11.50;1.00
1602;DHT22;794;48.592;9.634;2023-05-16T04:49:29;11.30;1.00
1602;DHT22;794;48.592;9.634;2023-05-16T04:51:56;11.40;1.00
1602;DHT22;794;48.592;9.634;2023-05-16T04:54:23;11.80;1.00
1602;DHT22;794;48.592;9.634;2023-05-16T04:56:50;11.70;1.00
1602;DHT22;794;48.592;9.634;2023-05-16T04:59:17;11.60;1.00
1602;DHT22;794;48.592;9.634;2023-05-16T05:01:44;11.60;1.00
1602;DHT22;794;48.592;9.634;2023-05-16T05:04:11;11.50;1.00
1602;DHT22;794;48.592;9.634;2023-05-16T05:06:40;11.60;1.00
1602;DHT22;794;48.592;9.634;2023-05-16T05:09:06;11.60;1.00
1602;DHT22;794;48.592;9.634;2023-05-16T05:11:34;11.60;1.00
1602;DHT22;794;48.592;9.634;2023-05-16T05:14:01;11.80;1.00
1602;DHT22;794;48.592;9.634;2023-05-16T05:16:28;12.00;1.00
1602;DHT22;794;48.592;9.634;2023-05-16T05:18:55;12.00;1.00
1602;DHT22;794;48.592;9.634;2023-05-16T05:21:22;12.00;1.00
1602;DHT22;794;48.592;9.634;2023-05-16T05:23:51;12.30;1.00
1602;DHT22;794;48.592;9.634;2023-05-16T05:26:18;12.10;1.00
1602;DHT22;794;48.592;9.634;2023-05-16T05:28:47;12.00;1.00
1602;DHT22;794;48.592;9.634;2023-05-16T05:31:14;11.90;1.00
1602;DHT22;794;48.592;9.634;2023-05-16T05:33:41;11.80;1.00
1602;DHT22;794;48.592;9.634;2023-05-16T05:36:08;12.10;1.00
1602;DHT22;794;48.592;9.634;2023-05-16T05:38:35;12.10;1.00
1602;DHT22;794;48.592;9.634;2023-05-16T05:41:03;11.80;1.00
1602;DHT22;794;48.592;9.634;2023-05-16T05:43:31;12.00;1.00
1602;DHT22;794;48.592;9.634;2023-05-16T05:45:58;11.90;1.00
1602;DHT22;794;48.592;9.634;2023-05-16T05:48:25;11.80;1.00
1602;DHT22;794;48.592;9.634;2023-05-16T05:50:54;11.70;1.00
1602;DHT22;794;48.592;9.634;2023-05-16T05:53:21;11.70;1.00
1602;DHT22;794;48.592;9.634;2023-05-16T05:55:48;11.30;1.00
1602;DHT22;794;48.592;9.634;2023-05-16T05:58:16;11.40;1.00
1602;DHT22;794;48.592;9.634;2023-05-16T06:00:43;11.60;1.00
1602;DHT22;794;48.592;9.634;2023-05-16T06:03:10;11.30;1.00
1602;DHT22;794;48.592;9.634;2023-05-16T06:05:37;11.30;1.00
1602;DHT22;794;48.592;9.634;2023-05-16T06:08:04;11.40;1.00
1602;DHT22;794;48.592;9.634;2023-05-16T06:10:31;11.40;1.00
1602;DHT22;794;48.592;9.634;2023-05-16T06:12:58;11.90;1.00
1602;DHT22;794;48.592;9.634;2023-05-16T06:15:28;11.90;1.00
1602;DHT22;794;48.592;9.634;2023-05-16T06:17:55;11.90;1.00
1602;DHT22;794;48.592;9.634;2023-05-16T06:20:24;12.10;1.00
1602;DHT22;794;48.592;9.634;2023-05-16T06:22:51;12.00;1.00
1602;DHT22;794;48.592;9.634;2023-05-16T06:25:17;12.20;1.00
1602;DHT22;794;48.592;9.634;2023-05-16T06:27:45;12.30;1.00
1602;DHT22;794;48.592;9.634;2023-05-16T06:30:12;12.20;1.00
1602;DHT22;794;48.592;9.634;2023-05-16T06:32:40;12.10;1.00
1602;DHT22;794;48.592;9.634;2023-05-16T06:35:08;12.00;1.00
1602;DHT22;794;48.592;9.634;2023-05-16T06:37:35;12.20;1.00
1602;DHT22;794;48.592;9.634;2023-05-16T06:40:04;12.00;1.00
1602;DHT22;794;48.592;9.634;2023-05-16T06:42:33;12.00;1.00
1602;DHT22;794;48.592;9.634;2023-05-16T06:45:00;12.10;1.00
1602;DHT22;794;48.592;9.634;2023-05-16T06:47:30;12.30;1.00
1602;DHT22;794;48.592;9.634;2023-05-16T06:49:58;12.60;1.00
1602;DHT22;794;48.592;9.634;2023-05-16T06:52:25;11.90;1.00
1602;DHT22;794;48.592;9.634;2023-05-16T06:54:53;12.10;1.00
1602;DHT22;794;48.592;9.634;2023-05-16T06:57:20;12.10;1.00
1602;DHT22;794;48.592;9.634;2023-05-16T06:59:49;11.90;1.00
1602;DHT22;794;48.592;9.634;2023-05-16T07:02:16;11.90;1.00
1602;DHT22;794;48.592;9.634;2023-05-16T07:04:43;11.60;1.00
1602;DHT22;794;48.592;9.634;2023-05-16T07:07:11;11.60;1.00
1602;DHT22;794;48.592;9.634;2023-05-16T07:09:38;12.00;1.00
1602;DHT22;794;48.592;9.634;2023-05-16T07:12:06;12.00;1.00
1602;DHT22;794;48.592;9.634;2023-05-16T07:14:33;12.00;1.00
1602;DHT22;794;48.592;9.634;2023-05-16T07:17:00;11.80;1.00
1602;DHT22;794;48.592;9.634;2023-05-16T07:19:27;12.00;1.00
1602;DHT22;794;48.592;9.634;2023-05-16T07:21:53;12.10;1.00
1602;DHT22;794;48.592;9.634;2023-05-16T07:24:22;12.10;1.00
1602;DHT22;794;48.592;9.634;2023-05-16T07:26:49;12.20;1.00
1602;DHT22;794;48.592;9.634;2023-05-16T07:29:16;12.10;1.00
1602;DHT22;794;48.592;9.634;2023-05-16T07:31:43;12.10;1.00
1602;DHT22;794;48.592;9.634;2023-05-16T07:34:10;12.00;1.00
1602;DHT22;794;48.592;9.634;2023-05-16T07:36:37;11.80;1.00
1602;DHT22;794;48.592;9.634;2023-05-16T07:39:07;11.80;1.00
1602;DHT22;794;48.592;9.634;2023-05-16T07:41:35;11.30;1.00
1602;DHT22;794;48.592;9.634;2023-05-16T07:44:02;11.50;1.00
1602;DHT22;794;48.592;9.634;2023-05-16T07:46:29;11.50;1.00
1602;DHT22;794;48.592;9.634;2023-05-16T07:48:56;11.60;1.00
1602;DHT22;794;48.592;9.634;2023-05-16T07:51:22;11.30;1.00
1602;DHT22;794;48.592;9.634;2023-05-16T07:53:49;11.40;1.00
1602;DHT22;794;48.592;9.634;2023-05-16T07:56:17;11.20;1.00
1602;DHT22;794;48.592;9.634;2023-05-16T07:58:45;11.10;1.00
1602;DHT22;794;48.592;9.634;2023-05-16T08:01:13;11.20;1.00
1602;DHT22;794;48.592;9.634;2023-05-16T08:03:40;11.00;1.00
1602;DHT22;794;48.592;9.634;2023-05-16T08:06:07;11.20;1.00
1602;DHT22;794;48.592;9.634;2023-05-16T08:08:34;11.00;1.00
1602;DHT22;794;48.592;9.634;2023-05-16T08:11:01;11.30;1.00
1602;DHT22;794;48.592;9.634;2023-05-16T08:13:27;11.30;1.00
1602;DHT22;794;48.592;9.634;2023-05-16T08:15:58;11.30;1.00
1602;DHT22;794;48.592;9.634;2023-05-16T08:18:25;11.30;1.00
1602;DHT22;794;48.592;9.634;2023-05-16T08:20:51;11.30;1.00
1602;DHT22;794;48.592;9.634;2023-05-16T08:23:18;11.30;1.00
1602;DHT22;794;48.592;9.634;2023-05-16T08:25:45;11.30;1.00
1602;DHT22;794;48.592;9.634;2023-05-16T08:28:12;11.50;1.00
1602;DHT22;794;48.592;9.634;2023-05-16T08:30:39;10.90;1.00
1602;DHT22;794;48.592;9.634;2023-05-16T08:33:08;11.20;1.00
1602;DHT22;794;48.592;9.634;2023-05-16T08:35:34;11.20;1.00
1602;DHT22;794;48.592;9.634;2023-05-16T08:38:02;11.20;1.00
1602;DHT22;794;48.592;9.634;2023-05-16T08:40:29;11.40;1.00
1602;DHT22;794;48.592;9.634;2023-05-16T08:42:56;11.40;1.00
1602;DHT22;794;48.592;9.634;2023-05-16T08:45:23;11.40;1.00
1602;DHT22;794;48.592;9.634;2023-05-16T08:47:53;11.30;1.00
1602;DHT22;794;48.592;9.634;2023-05-16T08:50:23;11.40;1.00
1602;DHT22;794;48.592;9.634;2023-05-16T08:52:51;11.30;1.00
1602;DHT22;794;48.592;9.634;2023-05-16T08:55:19;11.80;1.00
1602;DHT22;794;48.592;9.634;2023-05-16T08:57:48;11.80;1.00
1602;DHT22;794;48.592;9.634;2023-05-16T09:00:16;11.40;1.00
1602;DHT22;794;48.592;9.634;2023-05-16T09:02:43;11.60;1.00
1602;DHT22;794;48.592;9.634;2023-05-16T09:05:12;11.90;1.00
1602;DHT22;794;48.592;9.634;2023-05-16T09:07:40;11.40;1.00
1602;DHT22;794;48.592;9.634;2023-05-16T09:10:08;11.50;1.00
1602;DHT22;794;48.592;9.634;2023-05-16T09:12:36;11.70;1.00
1602;DHT22;794;48.592;9.634;2023-05-16T09:15:04;11.80;1.00
1602;DHT22;794;48.592;9.634;2023-05-16T09:17:34;12.00;1.00
1602;DHT22;794;48.592;9.634;2023-05-16T09:20:08;11.80;1.00
1602;DHT22;794;48.592;9.634;2023-05-16T09:22:35;11.80;1.00
1602;DHT22;794;48.592;9.634;2023-05-16T09:25:03;12.00;1.00
1602;DHT22;794;48.592;9.634;2023-05-16T09:27:31;12.00;1.00
1602;DHT22;794;48.592;9.634;2023-05-16T09:29:58;12.10;1.00
1602;DHT22;794;48.592;9.634;2023-05-16T09:32:26;11.90;1.00
1602;DHT22;794;48.592;9.634;2023-05-16T09:34:53;12.10;1.00
1602;DHT22;794;48.592;9.634;2023-05-16T09:37:23;12.20;1.00
1602;DHT22;794;48.592;9.634;2023-05-16T09:39:51;12.10;1.00
1602;DHT22;794;48.592;9.634;2023-05-16T09:42:20;11.90;1.00
1602;DHT22;794;48.592;9.634;2023-05-16T09:44:49;11.20;1.00
1602;DHT22;794;48.592;9.634;2023-05-16T09:47:16;11.60;1.00
1602;DHT22;794;48.592;9.634;2023-05-16T09:49:44;11.50;1.00
1602;DHT22;794;48.592;9.634;2023-05-16T09:52:12;11.70;1.00
1602;DHT22;794;48.592;9.634;2023-05-16T09:54:39;11.80;1.00
1602;DHT22;794;48.592;9.634;2023-05-16T09:57:06;11.70;1.00
1602;DHT22;794;48.592;9.634;2023-05-16T09:59:36;11.70;1.00
1602;DHT22;794;48.592;9.634;2023-05-16T10:02:04;11.90;1.00
1602;DHT22;794;48.592;9.634;2023-05-16T10:04:33;12.10;1.00
1602;DHT22;794;48.592;9.634;2023-05-16T10:07:04;12.10;1.00
1602;DHT22;794;48.592;9.634;2023-05-16T10:09:33;12.10;1.00
1602;DHT22;794;48.592;9.634;2023-05-16T10:12:01;12.00;1.00
1602;DHT22;794;48.592;9.634;2023-05-16T10:14:32;11.80;1.00
1602;DHT22;794;48.592;9.634;2023-05-16T10:17:02;12.00;1.00
1602;DHT22;794;48.592;9.634;2023-05-16T10:19:31;12.00;1.00
1602;DHT22;794;48.592;9.634;2023-05-16T10:22:00;12.20;1.00
1602;DHT22;794;48.592;9.634;2023-05-16T10:24:33;12.40;1.00
1602;DHT22;794;48.592;9.634;2023-05-16T10:27:02;12.50;1.00
1602;DHT22;794;48.592;9.634;2023-05-16T10:29:29;12.60;1.00
1602;DHT22;794;48.592;9.634;2023-05-16T10:32:01;12.70;1.00
1602;DHT22;794;48.592;9.634;2023-05-16T10:34:29;12.70;1.00
1602;DHT22;794;48.592;9.634;2023-05-16T10:36:56;13.20;1.00
1602;DHT22;794;48.592;9.634;2023-05-16T10:39:23;12.80;1.00
1602;DHT22;794;48.592;9.634;2023-05-16T10:41:51;12.70;1.00
1602;DHT22;794;48.592;9.634;2023-05-16T10:44:19;12.80;1.00
1602;DHT22;794;48.592;9.634;2023-05-16T10:46:46;12.60;1.00
1602;DHT22;794;48.592;9.634;2023-05-16T10:49:21;12.40;1.00
1602;DHT22;794;48.592;9.634;2023-05-16T10:52:02;12.20;1.00
1602;DHT22;794;48.592;9.634;2023-05-16T10:54:37;12.00;1.00
1602;DHT22;794;48.592;9.634;2023-05-16T10:57:06;11.10;1.00
1602;DHT22;794;48.592;9.634;2023-05-16T10:59:42;12.20;1.00
1602;DHT22;794;48.592;9.634;2023-05-16T11:02:23;12.50;1.00
1602;DHT22;794;48.592;9.634;2023-05-16T11:04:54;12.70;1.00
1602;DHT22;794;48.592;9.634;2023-05-16T11:07:22;12.60;1.00
1602;DHT22;794;48.592;9.634;2023-05-16T11:10:04;12.30;1.00
1602;DHT22;794;48.592;9.634;2023-05-16T11:12:43;13.10;1.00
1602;DHT22;794;48.592;9.634;2023-05-16T11:15:22;13.90;1.00
1602;DHT22;794;48.592;9.634;2023-05-16T11:17:49;13.20;1.00
1602;DHT22;794;48.592;9.634;2023-05-16T11:20:30;13.70;1.00
1602;DHT22;794;48.592;9.634;2023-05-16T11:23:22;13.00;1.00
1602;DHT22;794;48.592;9.634;2023-05-16T11:25:52;13.40;1.00
1602;DHT22;794;48.592;9.634;2023-05-16T11:28:19;13.40;1.00
1602;DHT22;794;48.592;9.634;2023-05-16T11:30:51;14.10;1.00
1602;DHT22;794;48.592;9.634;2023-05-16T11:33:19;13.80;1.00
1602;DHT22;794;48.592;9.634;2023-05-16T11:36:02;13.90;1.00
1602;DHT22;794;48.592;9.634;2023-05-16T11:38:29;14.00;1.00
1602;DHT22;794;48.592;9.634;2023-05-16T11:41:02;14.20;1.00
1602;DHT22;794;48.592;9.634;2023-05-16T11:43:29;13.60;1.00
1602;DHT22;794;48.592;9.634;2023-05-16T11:46:02;13.30;1.00
1602;DHT22;794;48.592;9.634;2023-05-16T11:48:29;13.30;1.00
1602;DHT22;794;48.592;9.634;2023-05-16T11:50:56;13.10;1.00
1602;DHT22;794;48.592;9.634;2023-05-16T11:53:24;13.40;1.00
1602;DHT22;794;48.592;9.634;2023-05-16T11:55:52;13.30;1.00
1602;DHT22;794;48.592;9.634;2023-05-16T11:58:20;13.20;1.00
1602;DHT22;794;48.592;9.634;2023-05-16T12:00:48;12.90;1.00
1602;DHT22;794;48.592;9.634;2023-05-16T12:03:16;12.40;1.00
1602;DHT22;794;48.592;9.634;2023-05-16T12:05:49;12.30;1.00
1602;DHT22;794;48.592;9.634;2023-05-16T12:08:18;13.20;1.00
1602;DHT22;794;48.592;9.634;2023-05-16T12:10:50;13.40;1.00
1602;DHT22;794;48.592;9.634;2023-05-16T12:13:19;13.70;1.00
1602;DHT22;794;48.592;9.634;2023-05-16T12:15:47;13.20;1.00
1602;DHT22;794;48.592;9.634;2023-05-16T12:18:14;13.30;1.00
1602;DHT22;794;48.592;9.634;2023-05-16T12:20:42;13.40;1.00
1602;DHT22;794;48.592;9.634;2023-05-16T12:23:10;13.10;1.00
1602;DHT22;794;48.592;9.634;2023-05-16T12:25:43;13.60;1.00
1602;DHT22;794;48.592;9.634;2023-05-16T12:28:13;13.70;1.00
1602;DHT22;794;48.592;9.634;2023-05-16T12:30:43;13.50;1.00
1602;DHT22;794;48.592;9.634;2023-05-16T12:33:13;13.40;1.00
1602;DHT22;794;48.592;9.634;2023-05-16T12:35:41;13.40;1.00
1602;DHT22;794;48.592;9.634;2023-05-16T12:38:09;13.70;1.00
1602;DHT22;794;48.592;9.634;2023-05-16T12:40:38;13.60;1.00
1602;DHT22;794;48.592;9.634;2023-05-16T12:43:14;13.50;1.00
1602;DHT22;794;48.592;9.634;2023-05-16T12:45:41;13.20;1.00
1602;DHT22;794;48.592;9.634;2023-05-16T12:48:12;13.70;1.00
1602;DHT22;794;48.592;9.634;2023-05-16T12:50:39;13.50;1.00
1602;DHT22;794;48.592;9.634;2023-05-16T12:53:11;13.70;1.00
1602;DHT22;794;48.592;9.634;2023-05-16T12:55:38;14.20;1.00
1602;DHT22;794;48.592;9.634;2023-05-16T12:58:07;14.30;1.00
1602;DHT22;794;48.592;9.634;2023-05-16T13:00:36;13.80;1.00
1602;DHT22;794;48.592;9.634;2023-05-16T13:03:04;13.50;1.00
1602;DHT22;794;48.592;9.634;2023-05-16T13:05:33;13.10;1.00
1602;DHT22;794;48.592;9.634;2023-05-16T13:08:01;13.00;1.00
1602;DHT22;794;48.592;9.634;2023-05-16T13:10:28;13.30;1.00
1602;DHT22;794;48.592;9.634;2023-05-16T13:12:55;13.50;1.00
1602;DHT22;794;48.592;9.634;2023-05-16T13:15:23;13.70;1.00
1602;DHT22;794;48.592;9.634;2023-05-16T13:17:51;13.70;1.00
1602;DHT22;794;48.592;9.634;2023-05-16T13:20:18;13.90;1.00
1602;DHT22;794;48.592;9.634;2023-05-16T13:22:45;14.00;1.00
1602;DHT22;794;48.592;9.634;2023-05-16T13:25:13;14.00;1.00
1602;DHT22;794;48.592;9.634;2023-05-16T13:27:39;13.50;1.00
1602;DHT22;794;48.592;9.634;2023-05-16T13:30:07;13.40;1.00
1602;DHT22;794;48.592;9.634;2023-05-16T13:32:34;13.40;1.00
1602;DHT22;794;48.592;9.634;2023-05-16T13:35:03;12.80;1.00
1602;DHT22;794;48.592;9.634;2023-05-16T13:37:30;13.00;1.00
1602;DHT22;794;48.592;9.634;2023-05-16T13:39:57;13.50;1.00
1602;DHT22;794;48.592;9.634;2023-05-16T13:42:24;13.70;1.00
1602;DHT22;794;48.592;9.634;2023-05-16T13:44:52;14.00;1.00
1602;DHT22;794;48.592;9.634;2023-05-16T13:47:18;13.90;1.00
1602;DHT22;794;48.592;9.634;2023-05-16T13:49:45;13.90;1.00
1602;DHT22;794;48.592;9.634;2023-05-16T13:52:14;13.90;1.00
1602;DHT22;794;48.592;9.634;2023-05-16T13:54:41;12.70;1.00
1602;DHT22;794;48.592;9.634;2023-05-16T13:57:08;12.90;1.00
1602;DHT22;794;48.592;9.634;2023-05-16T13:59:35;12.40;1.00
1602;DHT22;794;48.592;9.634;2023-05-16T14:02:03;12.20;1.00
1602;DHT22;794;48.592;9.634;2023-05-16T14:04:30;12.30;1.00
1602;DHT22;794;48.592;9.634;2023-05-16T14:06:58;11.80;1.00
1602;DHT22;794;48.592;9.634;2023-05-16T14:09:26;11.60;1.00
1602;DHT22;794;48.592;9.634;2023-05-16T14:11:53;11.50;1.00
1602;DHT22;794;48.592;9.634;2023-05-16T14:14:20;10.80;1.00
1602;DHT22;794;48.592;9.634;2023-05-16T14:16:47;11.20;1.00
1602;DHT22;794;48.592;9.634;2023-05-16T14:19:14;11.30;1.00
1602;DHT22;794;48.592;9.634;2023-05-16T14:21:41;11.40;1.00
1602;DHT22;794;48.592;9.634;2023-05-16T14:24:08;11.50;1.00
1602;DHT22;794;48.592;9.634;2023-05-16T14:26:36;11.60;1.00
1602;DHT22;794;48.592;9.634;2023-05-16T14:29:03;11.50;1.00
1602;DHT22;794;48.592;9.634;2023-05-16T14:31:30;11.60;1.00
1602;DHT22;794;48.592;9.634;2023-05-16T14:33:57;11.50;1.00
1602;DHT22;794;48.592;9.634;2023-05-16T14:36:25;11.50;1.00
1602;DHT22;794;48.592;9.634;2023-05-16T14:38:51;11.70;1.00
1602;DHT22;794;48.592;9.634;2023-05-16T14:41:19;11.50;1.00
1602;DHT22;794;48.592;9.634;2023-05-16T14:43:47;11.20;1.00
1602;DHT22;794;48.592;9.634;2023-05-16T14:46:14;11.50;1.00
1602;DHT22;794;48.592;9.634;2023-05-16T14:48:41;11.50;1.00
1602;DHT22;794;48.592;9.634;2023-05-16T14:51:08;11.70;1.00
1602;DHT22;794;48.592;9.634;2023-05-16T14:53:38;11.80;1.00
1602;DHT22;794;48.592;9.634;2023-05-16T14:56:05;12.20;1.00
1602;DHT22;794;48.592;9.634;2023-05-16T14:58:32;12.00;1.00
1602;DHT22;794;48.592;9.634;2023-05-16T15:01:00;11.30;1.00
1602;DHT22;794;48.592;9.634;2023-05-16T15:03:27;11.00;1.00
1602;DHT22;794;48.592;9.634;2023-05-16T15:05:56;11.20;1.00
1602;DHT22;794;48.592;9.634;2023-05-16T15:08:23;11.10;1.00
1602;DHT22;794;48.592;9.634;2023-05-16T15:10:50;11.10;1.00
1602;DHT22;794;48.592;9.634;2023-05-16T15:13:17;11.20;1.00
1602;DHT22;794;48.592;9.634;2023-05-16T15:15:44;11.30;1.00
1602;DHT22;794;48.592;9.634;2023-05-16T15:18:12;11.50;1.00
1602;DHT22;794;48.592;9.634;2023-05-16T15:20:39;11.20;1.00
1602;DHT22;794;48.592;9.634;2023-05-16T15:23:06;11.20;1.00
1602;DHT22;794;48.592;9.634;2023-05-16T15:25:36;11.30;1.00
1602;DHT22;794;48.592;9.634;2023-05-16T15:28:03;11.10;1.00
1602;DHT22;794;48.592;9.634;2023-05-16T15:30:30;11.30;1.00
1602;DHT22;794;48.592;9.634;2023-05-16T15:32:57;11.70;1.00
1602;DHT22;794;48.592;9.634;2023-05-16T15:35:26;11.70;1.00
1602;DHT22;794;48.592;9.634;2023-05-16T15:37:53;11.30;1.00
1602;DHT22;794;48.592;9.634;2023-05-16T15:40:21;11.20;1.00
1602;DHT22;794;48.592;9.634;2023-05-16T15:42:48;11.30;1.00
1602;DHT22;794;48.592;9.634;2023-05-16T15:45:15;11.30;1.00
1602;DHT22;794;48.592;9.634;2023-05-16T15:47:42;11.00;1.00
1602;DHT22;794;48.592;9.634;2023-05-16T15:50:09;11.20;1.00
1602;DHT22;794;48.592;9.634;2023-05-16T15:52:38;11.30;1.00
1602;DHT22;794;48.592;9.634;2023-05-16T15:55:05;11.00;1.00
1602;DHT22;794;48.592;9.634;2023-05-16T15:57:32;11.10;1.00
1602;DHT22;794;48.592;9.634;2023-05-16T15:59:59;11.30;1.00
1602;DHT22;794;48.592;9.634;2023-05-16T16:02:26;11.10;1.00
1602;DHT22;794;48.592;9.634;2023-05-16T16:04:53;10.90;1.00
1602;DHT22;794;48.592;9.634;2023-05-16T16:07:21;11.10;1.00
1602;DHT22;794;48.592;9.634;2023-05-16T16:09:50;11.20;1.00
1602;DHT22;794;48.592;9.634;2023-05-16T16:12:17;11.30;1.00
1602;DHT22;794;48.592;9.634;2023-05-16T16:14:44;11.50;1.00
1602;DHT22;794;48.592;9.634;2023-05-16T16:17:13;11.20;1.00
1602;DHT22;794;48.592;9.634;2023-05-16T16:19:41;11.00;1.00
1602;DHT22;794;48.592;9.634;2023-05-16T16:22:08;11.10;1.00
1602;DHT22;794;48.592;9.634;2023-05-16T16:24:35;11.20;1.00
1602;DHT22;794;48.592;9.634;2023-05-16T16:27:03;11.30;1.00
1602;DHT22;794;48.592;9.634;2023-05-16T16:29:30;12.90;1.00
1602;DHT22;794;48.592;9.634;2023-05-16T16:31:57;10.60;1.00
1602;DHT22;794;48.592;9.634;2023-05-16T16:34:24;11.00;1.00
1602;DHT22;794;48.592;9.634;2023-05-16T16:36:51;10.80;1.00
1602;DHT22;794;48.592;9.634;2023-05-16T16:39:18;10.90;1.00
1602;DHT22;794;48.592;9.634;2023-05-16T16:41:45;10.80;1.00
1602;DHT22;794;48.592;9.634;2023-05-16T16:44:13;10.80;1.00
1602;DHT22;794;48.592;9.634;2023-05-16T16:46:40;10.60;1.00